sensor_id;sensor_type;location;lat;lon;timestamp;temperature;humidity
4548;DHT22;2286;51.570;7.090;2024-03-23T00:54:30;6.80;99.90
4548;DHT22;2286;51.570;7.090;2024-03-23T00:56:56;6.70;56.90
4548;DHT22;2286;51.570;7.090;2024-03-23T00:59:22;6.70;13.20
4548;DHT22;2286;51.570;7.090;2024-03-23T01:01:52;6.70;1.00
4548;DHT22;2286;51.570;7.090;2024-03-23T01:04:18;6.70;1.00
4548;DHT22;2286;51.570;7.090;2024-03-23T01:06:45;6.70;1.00
4548;DHT22;2286;51.570;7.090;2024-03-23T01:09:12;6.70;1.00
4548;DHT22;2286;51.570;7.090;2024-03-23T01:11:39;6.70;1.00
4548;DHT22;2286;51.570;7.090;2024-03-23T01:14:05;6.70;1.00
4548;DHT22;2286;51.570;7.090;2024-03-23T01:16:32;6.70;1.00
4548;DHT22;2286;51.570;7.090;2024-03-23T01:18:57;6.70;1.00
4548;DHT22;2286;51.570;7.090;2024-03-23T01:21:24;6.70;1.00
4548;DHT22;2286;51.570;7.090;2024-03-23T01:23:50;6.70;4.60
4548;DHT22;2286;51.570;7.090;2024-03-23T01:26:18;6.60;1.00
4548;DHT22;2286;51.570;7.090;2024-03-23T01:28:44;6.60;1.00
4548;DHT22;2286;51.570;7.090;2024-03-23T01:31:11;6.60;99.90
4548;DHT22;2286;51.570;7.090;2024-03-23T01:33:36;6.50;99.90
4548;DHT22;2286;51.570;7.090;2024-03-23T01:36:04;6.60;1.00
4548;DHT22;2286;51.570;7.090;2024-03-23T01:38:30;6.50;1.00
4548;DHT22;2286;51.570;7.090;2024-03-23T01:40:57;6.40;88.00
4548;DHT22;2286;51.570;7.090;2024-03-23T01:43:24;6.40;99.90
4548;DHT22;2286;51.570;7.090;2024-03-23T01:45:51;6.40;99.90
4548;DHT22;2286;51.570;7.090;2024-03-23T01:48:19;6.50;1.00
4548;DHT22;2286;51.570;7.090;2024-03-23T01:50:46;6.50;1.00
4548;DHT22;2286;51.570;7.090;2024-03-23T01:53:12;6.50;40.70
4548;DHT22;2286;51.570;7.090;2024-03-23T01:55:42;6.40;99.90
4548;DHT22;2286;51.570;7.090;2024-03-23T01:58:08;6.40;99.90
4548;DHT22;2286;51.570;7.090;2024-03-23T02:00:36;6.40;99.90
4548;DHT22;2286;51.570;7.090;2024-03-23T02:03:02;6.30;99.90
4548;DHT22;2286;51.570;7.090;2024-03-23T02:05:48;6.40;99.90
4548;DHT22;2286;51.570;7.090;2024-03-23T02:08:14;6.40;99.90
4548;DHT22;2286;51.570;7.090;2024-03-23T02:10:41;6.30;99.90
4548;DHT22;2286;51.570;7.090;2024-03-23T02:13:08;6.30;99.90
4548;DHT22;2286;51.570;7.090;2024-03-23T02:15:36;6.30;99.90
4548;DHT22;2286;51.570;7.090;2024-03-23T02:18:02;6.30;99.90
4548;DHT22;2286;51.570;7.090;2024-03-23T02:20:28;6.40;99.90
4548;DHT22;2286;51.570;7.090;2024-03-23T02:22:55;6.30;99.90
4548;DHT22;2286;51.570;7.090;2024-03-23T02:25:22;6.20;99.90
4548;DHT22;2286;51.570;7.090;2024-03-23T02:27:48;6.20;99.90
4548;DHT22;2286;51.570;7.090;2024-03-23T02:30:15;6.20;99.90
4548;DHT22;2286;51.570;7.090;2024-03-23T02:32:41;6.20;99.90
4548;DHT22;2286;51.570;7.090;2024-03-23T02:35:07;6.20;99.90
4548;DHT22;2286;51.570;7.090;2024-03-23T02:37:33;6.30;99.90
4548;DHT22;2286;51.570;7.090;2024-03-23T02:40:01;6.20;99.90
4548;DHT22;2286;51.570;7.090;2024-03-23T02:42:27;6.20;1.00
4548;DHT22;2286;51.570;7.090;2024-03-23T02:44:54;6.20;1.00
4548;DHT22;2286;51.570;7.090;2024-03-23T02:47:20;6.20;1.00
4548;DHT22;2286;51.570;7.090;2024-03-23T02:49:47;6.10;99.90
4548;DHT22;2286;51.570;7.090;2024-03-23T02:52:12;6.10;99.90
4548;DHT22;2286;51.570;7.090;2024-03-23T02:54:39;6.10;99.90
4548;DHT22;2286;51.570;7.090;2024-03-23T02:57:09;6.10;99.90
4548;DHT22;2286;51.570;7.090;2024-03-23T02:59:35;6.10;65.50
4548;DHT22;2286;51.570;7.090;2024-03-23T03:02:01;6.10;99.90
4548;DHT22;2286;51.570;7.090;2024-03-23T03:04:30;6.00;1.00
4548;DHT22;2286;51.570;7.090;2024-03-23T03:06:55;6.00;1.00
4548;DHT22;2286;51.570;7.090;2024-03-23T03:09:22;6.10;99.90
4548;DHT22;2286;51.570;7.090;2024-03-23T03:11:48;6.00;1.00
4548;DHT22;2286;51.570;7.090;2024-03-23T03:14:16;6.00;1.00
4548;DHT22;2286;51.570;7.090;2024-03-23T03:16:42;6.00;1.00
4548;DHT22;2286;51.570;7.090;2024-03-23T03:19:09;5.90;1.00
4548;DHT22;2286;51.570;7.090;2024-03-23T03:21:36;5.90;1.00
4548;DHT22;2286;51.570;7.090;2024-03-23T03:24:05;5.90;99.90
4548;DHT22;2286;51.570;7.090;2024-03-23T03:26:31;5.90;99.90
4548;DHT22;2286;51.570;7.090;2024-03-23T03:28:58;5.90;99.90
4548;DHT22;2286;51.570;7.090;2024-03-23T03:31:25;5.90;99.90
4548;DHT22;2286;51.570;7.090;2024-03-23T03:33:52;5.90;99.90
4548;DHT22;2286;51.570;7.090;2024-03-23T03:36:18;5.80;99.90
4548;DHT22;2286;51.570;7.090;2024-03-23T03:38:45;5.80;22.00
4548;DHT22;2286;51.570;7.090;2024-03-23T03:41:10;5.90;57.70
4548;DHT22;2286;51.570;7.090;2024-03-23T03:43:37;5.80;99.90
4548;DHT22;2286;51.570;7.090;2024-03-23T03:46:03;5.80;99.90
4548;DHT22;2286;51.570;7.090;2024-03-23T03:48:31;5.80;1.00
4548;DHT22;2286;51.570;7.090;2024-03-23T03:50:57;5.90;35.60
4548;DHT22;2286;51.570;7.090;2024-03-23T03:53:24;5.80;1.00
4548;DHT22;2286;51.570;7.090;2024-03-23T03:55:50;5.80;1.00
4548;DHT22;2286;51.570;7.090;2024-03-23T03:58:17;5.80;23.60
4548;DHT22;2286;51.570;7.090;2024-03-23T04:00:42;5.80;47.20
4548;DHT22;2286;51.570;7.090;2024-03-23T04:03:09;5.80;70.60
4548;DHT22;2286;51.570;7.090;2024-03-23T04:05:37;5.80;99.90
4548;DHT22;2286;51.570;7.090;2024-03-23T04:08:05;5.80;1.00
4548;DHT22;2286;51.570;7.090;2024-03-23T04:10:31;5.80;1.00
4548;DHT22;2286;51.570;7.090;2024-03-23T04:12:58;5.80;1.00
4548;DHT22;2286;51.570;7.090;2024-03-23T04:15:24;5.80;1.00
4548;DHT22;2286;51.570;7.090;2024-03-23T04:17:51;5.80;99.90
4548;DHT22;2286;51.570;7.090;2024-03-23T04:20:17;5.70;99.90
4548;DHT22;2286;51.570;7.090;2024-03-23T04:22:45;5.80;1.00
4548;DHT22;2286;51.570;7.090;2024-03-23T04:25:11;5.80;99.90
4548;DHT22;2286;51.570;7.090;2024-03-23T04:27:38;5.80;99.90
4548;DHT22;2286;51.570;7.090;2024-03-23T04:30:05;5.80;1.00
4548;DHT22;2286;51.570;7.090;2024-03-23T04:32:36;5.80;1.00
4548;DHT22;2286;51.570;7.090;2024-03-23T04:35:02;5.80;1.00
4548;DHT22;2286;51.570;7.090;2024-03-23T04:37:31;5.80;1.00
4548;DHT22;2286;51.570;7.090;2024-03-23T04:39:59;5.80;1.00
4548;DHT22;2286;51.570;7.090;2024-03-23T04:42:27;5.80;1.00
4548;DHT22;2286;51.570;7.090;2024-03-23T04:44:54;5.80;1.00
4548;DHT22;2286;51.570;7.090;2024-03-23T04:47:21;5.80;1.00
4548;DHT22;2286;51.570;7.090;2024-03-23T04:49:48;5.80;1.00
4548;DHT22;2286;51.570;7.090;2024-03-23T04:52:16;5.80;1.00
4548;DHT22;2286;51.570;7.090;2024-03-23T04:54:44;5.80;1.00
4548;DHT22;2286;51.570;7.090;2024-03-23T04:57:12;5.70;1.00
4548;DHT22;2286;51.570;7.090;2024-03-23T04:59:39;5.70;1.00
4548;DHT22;2286;51.570;7.090;2024-03-23T05:02:05;5.70;1.00
4548;DHT22;2286;51.570;7.090;2024-03-23T05:04:32;5.70;1.00
4548;DHT22;2286;51.570;7.090;2024-03-23T05:06:58;5.70;1.00
4548;DHT22;2286;51.570;7.090;2024-03-23T05:09:25;5.70;1.00
4548;DHT22;2286;51.570;7.090;2024-03-23T05:11:55;5.70;1.00
4548;DHT22;2286;51.570;7.090;2024-03-23T05:14:24;5.70;1.00
4548;DHT22;2286;51.570;7.090;2024-03-23T05:16:50;5.80;10.50
4548;DHT22;2286;51.570;7.090;2024-03-23T05:19:17;5.80;17.40
4548;DHT22;2286;51.570;7.090;2024-03-23T05:21:42;5.80;9.30
4548;DHT22;2286;51.570;7.090;2024-03-23T05:24:09;5.80;26.50
4548;DHT22;2286;51.570;7.090;2024-03-23T05:26:36;5.80;62.50
4548;DHT22;2286;51.570;7.090;2024-03-23T05:29:03;5.80;99.90
4548;DHT22;2286;51.570;7.090;2024-03-23T05:31:31;5.80;99.90
4548;DHT22;2286;51.570;7.090;2024-03-23T05:33:58;5.80;99.90
4548;DHT22;2286;51.570;7.090;2024-03-23T05:36:24;5.80;99.90
4548;DHT22;2286;51.570;7.090;2024-03-23T05:38:51;5.80;99.90
4548;DHT22;2286;51.570;7.090;2024-03-23T05:41:16;5.80;99.90
4548;DHT22;2286;51.570;7.090;2024-03-23T05:43:43;5.80;99.90
4548;DHT22;2286;51.570;7.090;2024-03-23T05:46:09;5.80;99.90
4548;DHT22;2286;51.570;7.090;2024-03-23T05:48:37;5.80;99.90
4548;DHT22;2286;51.570;7.090;2024-03-23T05:51:04;5.80;99.90
4548;DHT22;2286;51.570;7.090;2024-03-23T05:53:31;5.80;99.90
4548;DHT22;2286;51.570;7.090;2024-03-23T05:56:01;5.80;99.90
4548;DHT22;2286;51.570;7.090;2024-03-23T05:58:31;5.80;99.90
4548;DHT22;2286;51.570;7.090;2024-03-23T06:01:00;5.80;99.90
4548;DHT22;2286;51.570;7.090;2024-03-23T06:03:28;5.80;99.90
4548;DHT22;2286;51.570;7.090;2024-03-23T06:05:56;5.90;99.90
4548;DHT22;2286;51.570;7.090;2024-03-23T06:08:23;5.90;99.90
4548;DHT22;2286;51.570;7.090;2024-03-23T06:10:49;5.90;99.90
4548;DHT22;2286;51.570;7.090;2024-03-23T06:13:17;5.90;99.90
4548;DHT22;2286;51.570;7.090;2024-03-23T06:15:43;5.90;99.90
4548;DHT22;2286;51.570;7.090;2024-03-23T06:18:12;6.00;46.90
4548;DHT22;2286;51.570;7.090;2024-03-23T06:20:38;5.90;1.00
4548;DHT22;2286;51.570;7.090;2024-03-23T06:23:06;5.90;1.00
4548;DHT22;2286;51.570;7.090;2024-03-23T06:25:32;5.90;1.00
4548;DHT22;2286;51.570;7.090;2024-03-23T06:27:59;5.80;1.00
4548;DHT22;2286;51.570;7.090;2024-03-23T06:30:27;5.80;1.00
4548;DHT22;2286;51.570;7.090;2024-03-23T06:32:55;5.70;1.00
4548;DHT22;2286;51.570;7.090;2024-03-23T06:35:21;5.70;15.60
4548;DHT22;2286;51.570;7.090;2024-03-23T06:37:47;5.80;35.70
4548;DHT22;2286;51.570;7.090;2024-03-23T06:40:15;5.80;17.70
4548;DHT22;2286;51.570;7.090;2024-03-23T06:42:42;5.90;1.00
4548;DHT22;2286;51.570;7.090;2024-03-23T06:45:08;5.90;1.00
4548;DHT22;2286;51.570;7.090;2024-03-23T06:47:35;5.90;1.00
4548;DHT22;2286;51.570;7.090;2024-03-23T06:50:02;5.90;99.90
4548;DHT22;2286;51.570;7.090;2024-03-23T06:52:29;5.90;1.00
4548;DHT22;2286;51.570;7.090;2024-03-23T06:54:55;5.90;99.90
4548;DHT22;2286;51.570;7.090;2024-03-23T06:57:23;6.00;99.90
4548;DHT22;2286;51.570;7.090;2024-03-23T06:59:49;6.00;99.90
4548;DHT22;2286;51.570;7.090;2024-03-23T07:02:17;6.00;99.90
4548;DHT22;2286;51.570;7.090;2024-03-23T07:04:42;6.00;99.90
4548;DHT22;2286;51.570;7.090;2024-03-23T07:07:09;6.00;99.90
4548;DHT22;2286;51.570;7.090;2024-03-23T07:09:35;6.00;1.00
4548;DHT22;2286;51.570;7.090;2024-03-23T07:12:03;6.00;99.90
4548;DHT22;2286;51.570;7.090;2024-03-23T07:14:31;6.10;99.90
4548;DHT22;2286;51.570;7.090;2024-03-23T07:16:58;6.10;99.90
4548;DHT22;2286;51.570;7.090;2024-03-23T07:19:24;6.10;1.00
4548;DHT22;2286;51.570;7.090;2024-03-23T07:21:51;6.20;10.10
4548;DHT22;2286;51.570;7.090;2024-03-23T07:24:17;6.20;1.00
4548;DHT22;2286;51.570;7.090;2024-03-23T07:26:44;6.30;1.00
4548;DHT22;2286;51.570;7.090;2024-03-23T07:29:10;6.30;99.90
4548;DHT22;2286;51.570;7.090;2024-03-23T07:31:38;6.30;1.00
4548;DHT22;2286;51.570;7.090;2024-03-23T07:34:04;6.40;1.00
4548;DHT22;2286;51.570;7.090;2024-03-23T07:36:31;6.40;1.00
4548;DHT22;2286;51.570;7.090;2024-03-23T07:38:57;6.50;99.90
4548;DHT22;2286;51.570;7.090;2024-03-23T07:41:24;6.60;99.90
4548;DHT22;2286;51.570;7.090;2024-03-23T07:43:50;6.70;1.00
4548;DHT22;2286;51.570;7.090;2024-03-23T07:46:17;6.70;1.00
4548;DHT22;2286;51.570;7.090;2024-03-23T07:48:45;6.80;99.90
4548;DHT22;2286;51.570;7.090;2024-03-23T07:51:15;6.80;22.20
4548;DHT22;2286;51.570;7.090;2024-03-23T07:53:43;6.90;1.00
4548;DHT22;2286;51.570;7.090;2024-03-23T07:56:11;6.90;1.00
4548;DHT22;2286;51.570;7.090;2024-03-23T07:58:37;7.00;1.00
4548;DHT22;2286;51.570;7.090;2024-03-23T08:01:05;7.10;1.00
4548;DHT22;2286;51.570;7.090;2024-03-23T08:03:33;7.10;99.90
4548;DHT22;2286;51.570;7.090;2024-03-23T08:06:08;7.20;99.90
4548;DHT22;2286;51.570;7.090;2024-03-23T08:08:35;7.30;99.90
4548;DHT22;2286;51.570;7.090;2024-03-23T08:11:02;7.30;1.00
4548;DHT22;2286;51.570;7.090;2024-03-23T08:13:29;7.40;1.00
4548;DHT22;2286;51.570;7.090;2024-03-23T08:15:57;7.60;1.00
4548;DHT22;2286;51.570;7.090;2024-03-23T08:18:24;7.80;99.90
4548;DHT22;2286;51.570;7.090;2024-03-23T08:20:56;7.80;99.90
4548;DHT22;2286;51.570;7.090;2024-03-23T08:23:24;7.80;99.90
4548;DHT22;2286;51.570;7.090;2024-03-23T08:25:50;7.90;99.90
4548;DHT22;2286;51.570;7.090;2024-03-23T08:28:17;7.90;1.00
4548;DHT22;2286;51.570;7.090;2024-03-23T08:30:44;8.00;99.90
4548;DHT22;2286;51.570;7.090;2024-03-23T08:33:11;8.10;1.00
4548;DHT22;2286;51.570;7.090;2024-03-23T08:35:38;8.30;1.00
4548;DHT22;2286;51.570;7.090;2024-03-23T08:38:05;8.40;1.00
4548;DHT22;2286;51.570;7.090;2024-03-23T08:40:32;8.50;1.00
4548;DHT22;2286;51.570;7.090;2024-03-23T08:42:59;8.40;99.90
4548;DHT22;2286;51.570;7.090;2024-03-23T08:45:25;8.40;99.90
4548;DHT22;2286;51.570;7.090;2024-03-23T08:47:52;8.50;99.90
4548;DHT22;2286;51.570;7.090;2024-03-23T08:50:18;8.70;99.90
4548;DHT22;2286;51.570;7.090;2024-03-23T08:52:45;8.70;99.90
4548;DHT22;2286;51.570;7.090;2024-03-23T08:55:11;8.80;99.90
4548;DHT22;2286;51.570;7.090;2024-03-23T08:57:39;8.80;99.90
4548;DHT22;2286;51.570;7.090;2024-03-23T09:00:06;8.80;1.00
4548;DHT22;2286;51.570;7.090;2024-03-23T09:02:34;8.80;1.00
4548;DHT22;2286;51.570;7.090;2024-03-23T09:05:00;9.00;1.00
4548;DHT22;2286;51.570;7.090;2024-03-23T09:07:30;8.90;99.90
4548;DHT22;2286;51.570;7.090;2024-03-23T09:09:56;9.10;1.00
4548;DHT22;2286;51.570;7.090;2024-03-23T09:12:23;9.30;99.90
4548;DHT22;2286;51.570;7.090;2024-03-23T09:14:50;9.50;99.90
4548;DHT22;2286;51.570;7.090;2024-03-23T09:17:19;9.30;99.90
4548;DHT22;2286;51.570;7.090;2024-03-23T09:19:45;9.10;99.90
4548;DHT22;2286;51.570;7.090;2024-03-23T09:22:12;8.70;99.90
4548;DHT22;2286;51.570;7.090;2024-03-23T09:24:38;8.50;99.90
4548;DHT22;2286;51.570;7.090;2024-03-23T09:27:05;8.40;99.90
4548;DHT22;2286;51.570;7.090;2024-03-23T09:29:31;8.40;99.90
4548;DHT22;2286;51.570;7.090;2024-03-23T09:32:00;8.50;99.90
4548;DHT22;2286;51.570;7.090;2024-03-23T09:34:26;8.50;99.90
4548;DHT22;2286;51.570;7.090;2024-03-23T09:36:53;8.50;99.90
4548;DHT22;2286;51.570;7.090;2024-03-23T09:39:19;8.50;99.90
4548;DHT22;2286;51.570;7.090;2024-03-23T09:41:45;8.70;99.90
4548;DHT22;2286;51.570;7.090;2024-03-23T09:44:11;8.80;69.20
4548;DHT22;2286;51.570;7.090;2024-03-23T09:46:38;9.10;22.60
4548;DHT22;2286;51.570;7.090;2024-03-23T09:49:07;9.30;1.00
4548;DHT22;2286;51.570;7.090;2024-03-23T09:51:36;9.10;1.00
4548;DHT22;2286;51.570;7.090;2024-03-23T09:54:02;8.90;1.00
4548;DHT22;2286;51.570;7.090;2024-03-23T09:56:29;8.70;1.00
4548;DHT22;2286;51.570;7.090;2024-03-23T09:59:00;8.70;1.00
4548;DHT22;2286;51.570;7.090;2024-03-23T10:01:29;8.90;1.00
4548;DHT22;2286;51.570;7.090;2024-03-23T10:03:55;8.80;1.00
4548;DHT22;2286;51.570;7.090;2024-03-23T10:06:23;9.40;1.00
4548;DHT22;2286;51.570;7.090;2024-03-23T10:08:50;9.40;1.00
4548;DHT22;2286;51.570;7.090;2024-03-23T10:11:18;9.00;1.00
4548;DHT22;2286;51.570;7.090;2024-03-23T10:13:45;9.40;1.00
4548;DHT22;2286;51.570;7.090;2024-03-23T10:16:21;10.40;1.00
4548;DHT22;2286;51.570;7.090;2024-03-23T10:18:47;11.50;99.90
4548;DHT22;2286;51.570;7.090;2024-03-23T10:21:15;12.10;99.90
4548;DHT22;2286;51.570;7.090;2024-03-23T10:23:43;11.90;99.90
4548;DHT22;2286;51.570;7.090;2024-03-23T10:26:15;11.30;99.90
4548;DHT22;2286;51.570;7.090;2024-03-23T10:28:52;11.40;99.90
4548;DHT22;2286;51.570;7.090;2024-03-23T10:31:19;10.80;99.90
4548;DHT22;2286;51.570;7.090;2024-03-23T10:33:46;10.30;99.90
4548;DHT22;2286;51.570;7.090;2024-03-23T10:36:13;9.90;99.90
4548;DHT22;2286;51.570;7.090;2024-03-23T10:38:40;9.90;99.90
4548;DHT22;2286;51.570;7.090;2024-03-23T10:41:10;10.30;99.90
4548;DHT22;2286;51.570;7.090;2024-03-23T10:43:37;11.30;99.90
4548;DHT22;2286;51.570;7.090;2024-03-23T10:46:04;11.40;99.90
4548;DHT22;2286;51.570;7.090;2024-03-23T10:48:30;12.60;99.90
4548;DHT22;2286;51.570;7.090;2024-03-23T10:50:58;13.50;99.90
4548;DHT22;2286;51.570;7.090;2024-03-23T10:53:26;14.60;99.90
4548;DHT22;2286;51.570;7.090;2024-03-23T10:55:55;14.30;99.90
4548;DHT22;2286;51.570;7.090;2024-03-23T10:58:25;13.00;99.90
4548;DHT22;2286;51.570;7.090;2024-03-23T11:00:53;11.00;99.90
4548;DHT22;2286;51.570;7.090;2024-03-23T11:03:34;8.70;99.90
4548;DHT22;2286;51.570;7.090;2024-03-23T11:06:03;7.50;1.00
4548;DHT22;2286;51.570;7.090;2024-03-23T11:08:33;6.90;99.90
4548;DHT22;2286;51.570;7.090;2024-03-23T11:11:18;6.60;99.90
4548;DHT22;2286;51.570;7.090;2024-03-23T11:13:48;6.10;99.90
4548;DHT22;2286;51.570;7.090;2024-03-23T11:16:16;5.90;1.00
4548;DHT22;2286;51.570;7.090;2024-03-23T11:18:43;6.00;1.00
4548;DHT22;2286;51.570;7.090;2024-03-23T11:21:11;6.20;99.90
4548;DHT22;2286;51.570;7.090;2024-03-23T11:24:14;7.00;1.00
4548;DHT22;2286;51.570;7.090;2024-03-23T11:26:41;7.70;1.00
4548;DHT22;2286;51.570;7.090;2024-03-23T11:29:12;8.40;1.00
4548;DHT22;2286;51.570;7.090;2024-03-23T11:31:45;9.20;99.90
4548;DHT22;2286;51.570;7.090;2024-03-23T11:34:11;10.00;1.00
4548;DHT22;2286;51.570;7.090;2024-03-23T11:36:38;10.50;1.00
4548;DHT22;2286;51.570;7.090;2024-03-23T11:39:12;11.00;99.90
4548;DHT22;2286;51.570;7.090;2024-03-23T11:41:48;11.40;1.00
4548;DHT22;2286;51.570;7.090;2024-03-23T11:44:16;12.10;1.00
4548;DHT22;2286;51.570;7.090;2024-03-23T11:46:43;11.60;1.00
4548;DHT22;2286;51.570;7.090;2024-03-23T11:49:22;12.10;99.90
4548;DHT22;2286;51.570;7.090;2024-03-23T11:51:50;12.70;99.90
4548;DHT22;2286;51.570;7.090;2024-03-23T11:54:16;13.30;99.90
4548;DHT22;2286;51.570;7.090;2024-03-23T11:56:54;13.40;99.90
4548;DHT22;2286;51.570;7.090;2024-03-23T11:59:35;13.80;99.90
4548;DHT22;2286;51.570;7.090;2024-03-23T12:02:06;13.30;99.90
4548;DHT22;2286;51.570;7.090;2024-03-23T12:04:33;12.30;99.90
4548;DHT22;2286;51.570;7.090;2024-03-23T12:07:11;11.30;99.90
4548;DHT22;2286;51.570;7.090;2024-03-23T12:09:38;10.70;99.90
4548;DHT22;2286;51.570;7.090;2024-03-23T12:12:10;10.60;1.00
4548;DHT22;2286;51.570;7.090;2024-03-23T12:14:38;10.60;99.90
4548;DHT22;2286;51.570;7.090;2024-03-23T12:17:09;9.90;99.90
4548;DHT22;2286;51.570;7.090;2024-03-23T12:19:35;9.80;1.00
4548;DHT22;2286;51.570;7.090;2024-03-23T12:22:04;9.70;1.00
4548;DHT22;2286;51.570;7.090;2024-03-23T12:24:31;9.20;1.00
4548;DHT22;2286;51.570;7.090;2024-03-23T12:27:00;9.20;99.90
4548;DHT22;2286;51.570;7.090;2024-03-23T12:29:28;9.40;1.00
4548;DHT22;2286;51.570;7.090;2024-03-23T12:31:56;10.10;99.90
4548;DHT22;2286;51.570;7.090;2024-03-23T12:34:22;10.80;99.90
4548;DHT22;2286;51.570;7.090;2024-03-23T12:36:49;11.40;99.90
4548;DHT22;2286;51.570;7.090;2024-03-23T12:39:14;12.30;99.90
4548;DHT22;2286;51.570;7.090;2024-03-23T12:41:41;13.30;99.90
4548;DHT22;2286;51.570;7.090;2024-03-23T12:44:07;13.00;99.90
4548;DHT22;2286;51.570;7.090;2024-03-23T12:46:37;12.70;99.90
4548;DHT22;2286;51.570;7.090;2024-03-23T12:49:04;12.50;99.90
4548;DHT22;2286;51.570;7.090;2024-03-23T12:51:31;12.10;99.90
4548;DHT22;2286;51.570;7.090;2024-03-23T12:53:57;12.40;99.90
4548;DHT22;2286;51.570;7.090;2024-03-23T12:56:24;13.10;99.90
4548;DHT22;2286;51.570;7.090;2024-03-23T12:58:50;13.00;99.90
4548;DHT22;2286;51.570;7.090;2024-03-23T13:01:19;12.50;99.90
4548;DHT22;2286;51.570;7.090;2024-03-23T13:03:46;12.40;99.90
4548;DHT22;2286;51.570;7.090;2024-03-23T13:06:14;11.70;99.90
4548;DHT22;2286;51.570;7.090;2024-03-23T13:08:41;10.70;99.90
4548;DHT22;2286;51.570;7.090;2024-03-23T13:11:08;10.10;99.90
4548;DHT22;2286;51.570;7.090;2024-03-23T13:13:36;9.80;99.90
4548;DHT22;2286;51.570;7.090;2024-03-23T13:16:03;9.30;1.00
4548;DHT22;2286;51.570;7.090;2024-03-23T13:18:29;8.50;99.90
4548;DHT22;2286;51.570;7.090;2024-03-23T13:20:56;8.00;99.90
4548;DHT22;2286;51.570;7.090;2024-03-23T13:23:24;7.80;15.10
4548;DHT22;2286;51.570;7.090;2024-03-23T13:25:51;7.90;99.90
4548;DHT22;2286;51.570;7.090;2024-03-23T13:28:18;8.50;99.90
4548;DHT22;2286;51.570;7.090;2024-03-23T13:30:55;8.90;1.00
4548;DHT22;2286;51.570;7.090;2024-03-23T13:33:21;9.70;1.00
4548;DHT22;2286;51.570;7.090;2024-03-23T13:35:51;10.40;99.90
4548;DHT22;2286;51.570;7.090;2024-03-23T13:38:18;10.40;56.70
4548;DHT22;2286;51.570;7.090;2024-03-23T13:40:56;9.40;1.00
4548;DHT22;2286;51.570;7.090;2024-03-23T13:43:23;8.50;99.90
4548;DHT22;2286;51.570;7.090;2024-03-23T13:45:53;8.20;1.00
4548;DHT22;2286;51.570;7.090;2024-03-23T13:48:20;7.90;1.00
4548;DHT22;2286;51.570;7.090;2024-03-23T13:50:56;7.80;1.00
4548;DHT22;2286;51.570;7.090;2024-03-23T13:53:22;7.70;1.00
4548;DHT22;2286;51.570;7.090;2024-03-23T13:55:49;8.00;1.00
4548;DHT22;2286;51.570;7.090;2024-03-23T13:58:17;8.30;99.90
4548;DHT22;2286;51.570;7.090;2024-03-23T14:00:44;8.40;99.90
4548;DHT22;2286;51.570;7.090;2024-03-23T14:03:10;8.50;99.90
4548;DHT22;2286;51.570;7.090;2024-03-23T14:05:38;8.30;99.90
4548;DHT22;2286;51.570;7.090;2024-03-23T14:08:04;8.40;99.90
4548;DHT22;2286;51.570;7.090;2024-03-23T14:10:31;8.70;99.90
4548;DHT22;2286;51.570;7.090;2024-03-23T14:12:57;10.30;1.00
4548;DHT22;2286;51.570;7.090;2024-03-23T14:15:27;11.10;99.90
4548;DHT22;2286;51.570;7.090;2024-03-23T14:17:53;11.40;99.90
4548;DHT22;2286;51.570;7.090;2024-03-23T14:20:21;12.90;99.90
4548;DHT22;2286;51.570;7.090;2024-03-23T14:22:47;14.20;99.90
4548;DHT22;2286;51.570;7.090;2024-03-23T14:25:14;13.60;99.90
4548;DHT22;2286;51.570;7.090;2024-03-23T14:27:40;13.80;99.90
4548;DHT22;2286;51.570;7.090;2024-03-23T14:30:07;14.50;99.90
4548;DHT22;2286;51.570;7.090;2024-03-23T14:32:35;14.80;99.90
4548;DHT22;2286;51.570;7.090;2024-03-23T14:35:03;14.30;99.90
4548;DHT22;2286;51.570;7.090;2024-03-23T14:37:29;14.00;99.90
4548;DHT22;2286;51.570;7.090;2024-03-23T14:39:56;13.00;99.90
4548;DHT22;2286;51.570;7.090;2024-03-23T14:42:23;12.60;99.90
4548;DHT22;2286;51.570;7.090;2024-03-23T14:44:50;12.10;99.90
4548;DHT22;2286;51.570;7.090;2024-03-23T14:47:17;11.70;99.90
4548;DHT22;2286;51.570;7.090;2024-03-23T14:49:45;11.30;99.90
4548;DHT22;2286;51.570;7.090;2024-03-23T14:52:12;10.50;99.90
4548;DHT22;2286;51.570;7.090;2024-03-23T14:54:39;10.10;99.90
4548;DHT22;2286;51.570;7.090;2024-03-23T14:57:05;10.10;99.90
4548;DHT22;2286;51.570;7.090;2024-03-23T14:59:34;10.30;99.90
4548;DHT22;2286;51.570;7.090;2024-03-23T15:02:00;11.80;99.90
4548;DHT22;2286;51.570;7.090;2024-03-23T15:04:27;12.80;99.90
4548;DHT22;2286;51.570;7.090;2024-03-23T15:06:55;12.00;99.90
4548;DHT22;2286;51.570;7.090;2024-03-23T15:09:22;11.50;99.90
4548;DHT22;2286;51.570;7.090;2024-03-23T15:11:47;11.10;99.90
4548;DHT22;2286;51.570;7.090;2024-03-23T15:14:14;11.70;99.90
4548;DHT22;2286;51.570;7.090;2024-03-23T15:16:40;12.00;99.90
4548;DHT22;2286;51.570;7.090;2024-03-23T15:19:08;11.20;99.90
4548;DHT22;2286;51.570;7.090;2024-03-23T15:21:34;10.60;99.90
4548;DHT22;2286;51.570;7.090;2024-03-23T15:24:02;10.80;99.90
4548;DHT22;2286;51.570;7.090;2024-03-23T15:26:29;11.50;99.90
4548;DHT22;2286;51.570;7.090;2024-03-23T15:28:55;12.30;99.90
4548;DHT22;2286;51.570;7.090;2024-03-23T15:31:37;12.70;99.90
4548;DHT22;2286;51.570;7.090;2024-03-23T15:34:04;13.90;99.90
4548;DHT22;2286;51.570;7.090;2024-03-23T15:36:30;13.10;99.90
4548;DHT22;2286;51.570;7.090;2024-03-23T15:38:57;12.70;99.90
4548;DHT22;2286;51.570;7.090;2024-03-23T15:41:24;12.10;99.90
4548;DHT22;2286;51.570;7.090;2024-03-23T15:43:51;12.40;99.90
4548;DHT22;2286;51.570;7.090;2024-03-23T15:46:17;12.80;99.90
4548;DHT22;2286;51.570;7.090;2024-03-23T15:48:44;12.20;99.90
4548;DHT22;2286;51.570;7.090;2024-03-23T15:51:12;12.20;99.90
4548;DHT22;2286;51.570;7.090;2024-03-23T15:53:39;12.30;99.90
4548;DHT22;2286;51.570;7.090;2024-03-23T15:56:06;13.60;99.90
4548;DHT22;2286;51.570;7.090;2024-03-23T15:58:34;12.50;99.90
4548;DHT22;2286;51.570;7.090;2024-03-23T16:01:01;12.20;99.90
4548;DHT22;2286;51.570;7.090;2024-03-23T16:03:28;12.10;99.90
4548;DHT22;2286;51.570;7.090;2024-03-23T16:05:55;11.70;99.90
4548;DHT22;2286;51.570;7.090;2024-03-23T16:08:23;11.60;99.90
4548;DHT22;2286;51.570;7.090;2024-03-23T16:10:49;12.70;99.90
4548;DHT22;2286;51.570;7.090;2024-03-23T16:13:17;14.50;99.90
4548;DHT22;2286;51.570;7.090;2024-03-23T16:15:45;15.30;99.90
4548;DHT22;2286;51.570;7.090;2024-03-23T16:18:12;14.80;99.90
4548;DHT22;2286;51.570;7.090;2024-03-23T16:20:38;14.30;99.90
4548;DHT22;2286;51.570;7.090;2024-03-23T16:23:05;13.60;99.90
4548;DHT22;2286;51.570;7.090;2024-03-23T16:25:31;13.60;99.90
4548;DHT22;2286;51.570;7.090;2024-03-23T16:27:58;13.60;99.90
4548;DHT22;2286;51.570;7.090;2024-03-23T16:30:23;12.90;99.90
4548;DHT22;2286;51.570;7.090;2024-03-23T16:32:52;11.70;99.90
4548;DHT22;2286;51.570;7.090;2024-03-23T16:35:18;10.70;99.90
4548;DHT22;2286;51.570;7.090;2024-03-23T16:37:46;10.30;99.90
4548;DHT22;2286;51.570;7.090;2024-03-23T16:40:13;9.80;99.90
4548;DHT22;2286;51.570;7.090;2024-03-23T16:42:40;9.40;99.90
4548;DHT22;2286;51.570;7.090;2024-03-23T16:45:08;9.20;99.90
4548;DHT22;2286;51.570;7.090;2024-03-23T16:47:34;8.90;99.90
4548;DHT22;2286;51.570;7.090;2024-03-23T16:50:02;8.90;99.90
4548;DHT22;2286;51.570;7.090;2024-03-23T16:52:29;8.80;99.90
4548;DHT22;2286;51.570;7.090;2024-03-23T16:54:55;8.80;99.90
4548;DHT22;2286;51.570;7.090;2024-03-23T16:57:22;8.80;99.90
4548;DHT22;2286;51.570;7.090;2024-03-23T16:59:48;8.70;99.90
4548;DHT22;2286;51.570;7.090;2024-03-23T17:02:14;8.60;99.90
4548;DHT22;2286;51.570;7.090;2024-03-23T17:04:40;7.40;1.00
4548;DHT22;2286;51.570;7.090;2024-03-23T17:07:09;6.20;1.00
4548;DHT22;2286;51.570;7.090;2024-03-23T17:09:46;5.40;99.90
4548;DHT22;2286;51.570;7.090;2024-03-23T17:12:13;5.30;99.90
4548;DHT22;2286;51.570;7.090;2024-03-23T17:14:40;5.30;78.00